createdAt,value
2018-10-19T00:01:23.404Z,8.90
2018-10-19T00:03:52.593Z,8.90
2018-10-19T00:06:24.771Z,8.80
2018-10-19T00:08:54.359Z,8.80
2018-10-19T00:11:23.545Z,8.90
2018-10-19T00:13:53.535Z,8.80
2018-10-19T00:16:23.465Z,8.80
2018-10-19T00:18:52.909Z,8.80
2018-10-19T00:21:24.224Z,8.80
2018-10-19T00:23:55.707Z,8.80
2018-10-19T00:26:25.816Z,8.70
2018-10-19T00:28:55.002Z,8.70
2018-10-19T00:31:24.353Z,8.60
2018-10-19T00:33:53.689Z,8.70
2018-10-19T00:36:23.762Z,8.60
2018-10-19T00:38:53.196Z,8.60
2018-10-19T00:41:23.762Z,8.50
2018-10-19T00:43:53.304Z,8.50
2018-10-19T00:46:24.501Z,8.40
2018-10-19T00:48:53.728Z,8.30
2018-10-19T00:51:23.860Z,8.30
2018-10-19T00:53:53.936Z,8.30
2018-10-19T00:56:25.127Z,8.40
2018-10-19T00:58:54.539Z,8.30
2018-10-19T01:01:24.499Z,8.30
2018-10-19T01:03:54.974Z,8.20
2018-10-19T01:06:27.571Z,8.20
2018-10-19T01:08:56.842Z,8.20
2018-10-19T01:11:26.116Z,8.10
2018-10-19T01:13:55.303Z,8.20
2018-10-19T01:16:26.307Z,8.20
2018-10-19T01:18:55.848Z,8.20
2018-10-19T01:21:27.021Z,8.20
2018-10-19T01:23:57.904Z,8.20
2018-10-19T01:26:27.152Z,8.10
2018-10-19T01:28:56.415Z,8.10
2018-10-19T01:31:26.560Z,8.10
2018-10-19T01:33:55.898Z,8.10
2018-10-19T01:36:31.788Z,8.00
2018-10-19T01:39:01.051Z,7.90
2018-10-19T01:41:34.183Z,7.90
2018-10-19T01:44:04.112Z,8.00
2018-10-19T01:46:33.342Z,8.10
2018-10-19T01:49:02.690Z,8.00
2018-10-19T01:51:32.159Z,7.90
2018-10-19T01:54:01.655Z,7.80
2018-10-19T01:56:31.117Z,7.70
2018-10-19T01:59:00.334Z,7.70
2018-10-19T02:01:29.541Z,7.80
2018-10-19T02:03:58.961Z,7.80
2018-10-19T02:06:29.329Z,7.80
2018-10-19T02:09:00.975Z,7.70
2018-10-19T02:11:30.839Z,7.70
2018-10-19T02:14:00.246Z,7.70
2018-10-19T02:16:29.465Z,7.60
2018-10-19T02:18:58.727Z,7.60
2018-10-19T02:21:30.151Z,7.60
2018-10-19T02:23:59.630Z,7.50
2018-10-19T02:26:29.849Z,7.60
2018-10-19T02:28:59.202Z,7.60
2018-10-19T02:31:29.278Z,7.50
2018-10-19T02:33:58.502Z,7.50
2018-10-19T02:36:29.815Z,7.50
2018-10-19T02:39:00.000Z,7.40
2018-10-19T02:41:29.195Z,7.40
2018-10-19T02:43:58.602Z,7.50
2018-10-19T02:46:32.760Z,7.50
2018-10-19T02:49:02.965Z,7.50
2018-10-19T02:51:32.243Z,7.50
2018-10-19T02:54:01.771Z,7.50
2018-10-19T02:56:31.002Z,7.40
2018-10-19T02:59:00.527Z,7.40
2018-10-19T03:01:29.782Z,7.30
2018-10-19T03:03:59.742Z,7.40
2018-10-19T03:06:29.799Z,7.30
2018-10-19T03:08:59.294Z,7.30
2018-10-19T03:11:30.768Z,7.30
2018-10-19T03:14:00.432Z,7.30
2018-10-19T03:16:30.639Z,7.30
2018-10-19T03:19:00.491Z,7.30
2018-10-19T03:21:30.780Z,7.20
2018-10-19T03:24:00.094Z,7.10
2018-10-19T03:26:32.222Z,7.10
2018-10-19T03:29:01.861Z,7.00
2018-10-19T03:31:31.262Z,6.90
2018-10-19T03:34:00.857Z,6.90
2018-10-19T03:36:30.837Z,6.90
2018-10-19T03:39:00.236Z,7.00
2018-10-19T03:41:30.341Z,7.00
2018-10-19T03:43:59.570Z,7.10
2018-10-19T03:46:30.078Z,7.10
2018-10-19T03:49:00.551Z,7.00
2018-10-19T03:51:34.191Z,7.00
2018-10-19T03:54:04.577Z,7.00
2018-10-19T03:56:34.697Z,7.00
2018-10-19T03:59:04.386Z,7.10
2018-10-19T04:01:33.628Z,7.00
2018-10-19T04:04:02.872Z,7.10
2018-10-19T04:06:32.183Z,7.10
2018-10-19T04:09:01.472Z,7.10
2018-10-19T04:11:32.750Z,7.10
2018-10-19T04:14:02.796Z,7.00
2018-10-19T04:16:32.285Z,7.00
2018-10-19T04:19:01.520Z,7.00
2018-10-19T04:21:33.257Z,7.00
2018-10-19T04:24:27.050Z,7.00
2018-10-19T04:26:58.162Z,6.90
2018-10-19T04:29:30.323Z,6.80
2018-10-19T04:32:01.276Z,6.70
2018-10-19T04:34:31.458Z,6.70
2018-10-19T04:37:06.448Z,6.60
2018-10-19T04:39:36.071Z,6.60
2018-10-19T04:42:08.246Z,6.70
2018-10-19T04:44:37.266Z,6.70
2018-10-19T04:47:07.005Z,6.60
2018-10-19T04:49:36.634Z,6.60
2018-10-19T04:52:05.995Z,6.50
2018-10-19T04:54:35.536Z,6.60
2018-10-19T04:57:04.970Z,6.60
2018-10-19T04:59:34.374Z,6.70
2018-10-19T05:02:03.630Z,6.70
2018-10-19T05:04:34.745Z,6.50
2018-10-19T05:07:04.101Z,6.50
2018-10-19T05:09:34.091Z,6.40
2018-10-19T05:12:04.217Z,6.40
2018-10-19T05:14:35.476Z,6.40
2018-10-19T05:17:05.071Z,6.40
2018-10-19T05:19:34.498Z,6.40
2018-10-19T05:22:07.075Z,6.40
2018-10-19T05:24:36.935Z,6.40
2018-10-19T05:27:08.556Z,6.40
2018-10-19T05:29:39.997Z,6.40
2018-10-19T05:32:10.145Z,6.40
2018-10-19T05:34:40.046Z,6.40
2018-10-19T05:37:09.343Z,6.50
2018-10-19T05:39:38.736Z,6.40
2018-10-19T05:42:08.777Z,6.50
2018-10-19T05:44:37.974Z,6.50
2018-10-19T05:47:07.874Z,6.50
2018-10-19T05:49:40.686Z,6.50
2018-10-19T05:52:10.745Z,6.50
2018-10-19T05:54:39.872Z,6.50
2018-10-19T05:57:09.146Z,6.60
2018-10-19T05:59:39.438Z,6.60
2018-10-19T06:02:08.836Z,6.70
2018-10-19T06:04:38.304Z,6.70
2018-10-19T06:07:07.811Z,6.70
2018-10-19T06:09:37.586Z,6.60
2018-10-19T06:12:07.721Z,6.60
2018-10-19T06:14:38.202Z,6.60
2018-10-19T06:17:07.705Z,6.70
2018-10-19T06:19:37.196Z,6.70
2018-10-19T06:22:06.742Z,6.80
2018-10-19T06:24:36.784Z,6.80
2018-10-19T06:27:06.389Z,6.90
2018-10-19T06:29:37.079Z,6.90
2018-10-19T06:32:06.913Z,7.00
2018-10-19T06:34:36.501Z,7.00
2018-10-19T06:37:06.063Z,7.00
2018-10-19T06:39:36.011Z,7.00
2018-10-19T06:42:06.370Z,7.10
2018-10-19T06:44:37.038Z,7.20
2018-10-19T06:47:07.079Z,7.30
2018-10-19T06:49:37.057Z,7.30
2018-10-19T06:52:06.300Z,7.40
2018-10-19T06:54:37.143Z,7.60
2018-10-19T06:57:07.537Z,7.60
2018-10-19T06:59:39.187Z,7.70
2018-10-19T07:02:09.360Z,7.70
2018-10-19T07:04:39.434Z,7.70
2018-10-19T07:07:09.318Z,7.80
2018-10-19T07:09:41.369Z,8.00
2018-10-19T07:12:10.634Z,8.10
2018-10-19T07:14:39.832Z,8.20
2018-10-19T07:17:10.512Z,8.20
2018-10-19T07:19:39.798Z,8.30
2018-10-19T07:22:10.022Z,8.30
2018-10-19T07:24:39.546Z,8.30
2018-10-19T07:27:09.197Z,8.30
2018-10-19T07:29:39.166Z,8.40
2018-10-19T07:32:08.406Z,8.40
2018-10-19T07:34:38.475Z,8.40
2018-10-19T07:37:08.969Z,8.40
2018-10-19T07:39:40.965Z,8.50
2018-10-19T07:42:11.019Z,8.60
2018-10-19T07:44:40.292Z,8.70
2018-10-19T07:47:10.023Z,8.70
2018-10-19T07:49:40.013Z,8.70
2018-10-19T07:52:09.257Z,8.80
2018-10-19T07:54:39.521Z,8.80
2018-10-19T07:57:09.851Z,8.90
2018-10-19T07:59:41.045Z,9.10
2018-10-19T08:02:11.248Z,9.20
2018-10-19T08:04:41.742Z,9.30
2018-10-19T08:07:11.982Z,9.30
2018-10-19T08:09:41.972Z,9.40
2018-10-19T08:12:11.473Z,9.50
2018-10-19T08:14:41.482Z,9.70
2018-10-19T08:17:11.115Z,9.80
2018-10-19T08:19:40.890Z,9.90
2018-10-19T08:22:10.695Z,10.00
2018-10-19T08:24:40.891Z,10.10
2018-10-19T08:27:10.313Z,10.30
2018-10-19T08:29:40.122Z,10.40
2018-10-19T08:32:09.517Z,10.50
2018-10-19T08:34:40.389Z,10.70
2018-10-19T08:37:09.739Z,10.90
2018-10-19T08:39:39.300Z,11.10
2018-10-19T08:42:08.995Z,11.20
2018-10-19T08:44:38.164Z,11.30
2018-10-19T08:47:08.281Z,11.40
2018-10-19T08:49:37.444Z,11.50
2018-10-19T08:52:06.708Z,11.60
2018-10-19T08:54:36.005Z,11.70
2018-10-19T08:57:05.555Z,11.80
2018-10-19T08:59:35.369Z,11.90
2018-10-19T09:02:04.974Z,12.00
2018-10-19T09:04:34.176Z,12.00
2018-10-19T09:07:04.409Z,12.10
2018-10-19T09:09:34.812Z,12.20
2018-10-19T09:12:04.060Z,12.30
2018-10-19T09:14:50.426Z,12.50
2018-10-19T09:17:22.616Z,12.60
2018-10-19T09:19:51.972Z,12.70
2018-10-19T09:22:21.470Z,12.80
2018-10-19T09:24:51.217Z,12.90
2018-10-19T09:27:21.682Z,12.90
2018-10-19T09:29:50.847Z,13.00
2018-10-19T09:32:21.845Z,13.10
2018-10-19T09:34:51.024Z,13.30
2018-10-19T09:37:20.320Z,13.30
2018-10-19T09:39:49.537Z,13.40
2018-10-19T09:42:18.836Z,13.50
2018-10-19T09:44:50.740Z,13.60
2018-10-19T09:47:21.745Z,13.70
2018-10-19T09:49:50.896Z,13.70
2018-10-19T09:53:26.183Z,13.80
2018-10-19T09:55:55.392Z,13.90
2018-10-19T09:58:24.702Z,13.90
2018-10-19T10:00:57.253Z,14.00
2018-10-19T10:03:27.056Z,14.00
2018-10-19T10:05:57.063Z,14.00
2018-10-19T10:08:27.352Z,14.10
2018-10-19T10:10:56.583Z,14.10
2018-10-19T10:13:27.124Z,14.20
2018-10-19T10:15:56.723Z,14.40
2018-10-19T10:18:26.757Z,14.50
2018-10-19T10:20:55.997Z,14.60
2018-10-19T10:23:25.222Z,14.70
2018-10-19T10:25:54.480Z,14.80
2018-10-19T10:28:23.738Z,14.80
2018-10-19T10:30:52.963Z,14.90
2018-10-19T10:33:22.172Z,15.00
2018-10-19T10:35:51.744Z,15.10
2018-10-19T10:38:21.133Z,15.00
2018-10-19T10:40:50.576Z,15.10
2018-10-19T10:43:21.086Z,15.20
2018-10-19T10:45:50.339Z,15.20
2018-10-19T10:48:19.755Z,15.30
2018-10-19T10:50:49.727Z,15.30
2018-10-19T10:53:19.321Z,15.40
2018-10-19T10:55:49.612Z,15.40
2018-10-19T10:58:19.810Z,15.50
2018-10-19T11:00:49.262Z,15.60
2018-10-19T11:03:18.727Z,15.70
2018-10-19T11:05:49.434Z,15.70
2018-10-19T11:08:19.700Z,15.70
2018-10-19T11:10:50.122Z,15.80
2018-10-19T11:13:19.329Z,16.00
2018-10-19T11:15:49.434Z,16.20
2018-10-19T11:18:18.759Z,16.30
2018-10-19T11:20:48.753Z,16.40
2018-10-19T11:23:18.285Z,16.50
2018-10-19T11:25:49.867Z,16.60
2018-10-19T11:28:19.119Z,16.70
2018-10-19T11:30:50.971Z,16.80
2018-10-19T11:33:20.296Z,16.80
2018-10-19T11:35:50.826Z,16.90
2018-10-19T11:38:21.068Z,17.00
2018-10-19T11:40:52.144Z,17.10
2018-10-19T11:43:21.997Z,17.20
2018-10-19T11:45:52.716Z,17.10
2018-10-19T11:48:23.054Z,17.10
2018-10-19T11:50:52.366Z,17.20
2018-10-19T11:53:21.621Z,17.30
2018-10-19T11:55:52.172Z,17.30
2018-10-19T11:58:22.104Z,17.40
2018-10-19T12:00:51.338Z,17.40
2018-10-19T12:03:20.949Z,17.40
2018-10-19T12:05:51.387Z,17.40
2018-10-19T12:08:22.845Z,17.50
2018-10-19T12:10:52.341Z,17.50
2018-10-19T12:13:21.893Z,17.40
2018-10-19T12:15:52.061Z,17.50
2018-10-19T12:18:22.351Z,17.50
2018-10-19T12:20:52.201Z,17.60
2018-10-19T12:23:21.456Z,17.70
2018-10-19T12:25:54.276Z,17.70
2018-10-19T12:28:23.566Z,17.60
2018-10-19T12:30:55.127Z,17.70
2018-10-19T12:33:24.296Z,17.70
2018-10-19T12:35:53.686Z,17.80
2018-10-19T12:38:24.251Z,17.90
2018-10-19T12:40:53.560Z,18.00
2018-10-19T12:43:22.784Z,18.00
2018-10-19T12:46:34.809Z,18.10
2018-10-19T12:49:04.143Z,18.10
2018-10-19T12:51:33.377Z,18.20
2018-10-19T12:54:02.739Z,18.20
2018-10-19T12:56:33.926Z,18.20
2018-10-19T12:59:03.177Z,18.20
2018-10-19T13:01:33.494Z,18.10
2018-10-19T13:04:03.261Z,18.10
2018-10-19T13:06:32.607Z,18.20
2018-10-19T13:09:01.950Z,18.30
2018-10-19T13:11:31.199Z,18.40
2018-10-19T13:14:01.157Z,18.60
2018-10-19T13:16:30.890Z,18.70
2018-10-19T13:19:00.402Z,18.80
2018-10-19T13:21:30.154Z,18.80
2018-10-19T13:23:59.390Z,18.80
2018-10-19T13:26:28.653Z,18.80
2018-10-19T13:28:57.887Z,18.80
2018-10-19T13:31:27.648Z,18.90
2018-10-19T13:33:56.928Z,19.20
2018-10-19T13:36:26.525Z,19.20
2018-10-19T13:38:57.032Z,19.50
2018-10-19T13:41:26.275Z,19.90
2018-10-19T13:43:55.436Z,20.40
2018-10-19T13:46:24.690Z,20.90
2018-10-19T13:48:54.748Z,21.30
2018-10-19T13:51:23.992Z,21.60
2018-10-19T13:53:55.382Z,21.80
2018-10-19T13:56:24.998Z,22.10
2018-10-19T13:58:55.188Z,22.50
2018-10-19T14:01:24.523Z,22.60
2018-10-19T14:03:53.862Z,22.90
2018-10-19T14:06:24.394Z,23.30
2018-10-19T14:08:54.980Z,23.50
2018-10-19T14:11:24.204Z,23.50
2018-10-19T14:13:54.263Z,23.40
2018-10-19T14:16:25.718Z,23.50
2018-10-19T14:18:57.857Z,23.50
2018-10-19T14:21:28.077Z,23.10
2018-10-19T14:23:57.488Z,22.80
2018-10-19T14:26:26.769Z,22.60
2018-10-19T14:28:56.038Z,22.50
2018-10-19T14:31:25.306Z,22.70
2018-10-19T14:33:55.504Z,22.90
2018-10-19T14:36:25.587Z,23.00
2018-10-19T14:38:55.950Z,23.00
2018-10-19T14:41:25.330Z,23.10
2018-10-19T14:43:55.360Z,23.30
2018-10-19T14:46:24.665Z,23.20
2018-10-19T14:48:55.792Z,23.00
2018-10-19T14:51:25.027Z,22.80
2018-10-19T14:53:55.793Z,22.50
2018-10-19T14:56:25.052Z,22.10
2018-10-19T14:58:54.359Z,21.70
2018-10-19T15:01:23.627Z,21.40
2018-10-19T15:03:52.918Z,21.10
2018-10-19T15:06:22.742Z,20.80
2018-10-19T15:08:52.260Z,20.50
2018-10-19T15:11:21.874Z,20.10
2018-10-19T15:13:51.003Z,19.90
2018-10-19T15:16:20.271Z,19.70
2018-10-19T15:18:49.925Z,19.50
2018-10-19T15:21:19.387Z,19.40
2018-10-19T15:23:48.677Z,19.30
2018-10-19T15:26:18.010Z,19.20
2018-10-19T15:28:48.174Z,19.10
2018-10-19T15:31:18.280Z,19.00
2018-10-19T15:33:47.534Z,18.90
2018-10-19T15:36:16.791Z,18.70
2018-10-19T15:38:46.061Z,18.50
2018-10-19T15:41:15.896Z,18.40
2018-10-19T15:43:45.345Z,18.30
2018-10-19T15:46:14.633Z,18.20
2018-10-19T15:48:43.874Z,18.10
2018-10-19T15:51:13.209Z,18.00
2018-10-19T15:53:42.531Z,17.90
2018-10-19T15:56:11.791Z,17.80
2018-10-19T15:58:41.188Z,17.60
2018-10-19T16:01:10.549Z,17.50
2018-10-19T16:03:39.937Z,17.40
2018-10-19T16:06:09.305Z,17.30
2018-10-19T16:08:39.426Z,17.20
2018-10-19T16:11:08.935Z,17.10
2018-10-19T16:13:39.154Z,17.00
2018-10-19T16:16:08.737Z,16.90
2018-10-19T16:18:38.171Z,16.90
2018-10-19T16:21:07.576Z,16.60
2018-10-19T16:23:36.770Z,16.20
2018-10-19T16:26:06.083Z,15.90
2018-10-19T16:28:36.392Z,15.60
2018-10-19T16:31:05.826Z,15.30
2018-10-19T16:33:36.779Z,14.90
2018-10-19T16:36:07.176Z,14.70
2018-10-19T16:38:36.459Z,14.50
2018-10-19T16:41:06.267Z,14.50
2018-10-19T16:43:35.489Z,14.30
2018-10-19T16:46:04.965Z,14.10
2018-10-19T16:48:34.237Z,14.00
2018-10-19T16:51:03.570Z,13.90
2018-10-19T16:53:32.820Z,13.80
2018-10-19T16:56:02.375Z,13.70
2018-10-19T16:58:33.463Z,13.60
2018-10-19T17:01:02.852Z,13.50
2018-10-19T17:03:32.140Z,13.40
2018-10-19T17:06:03.481Z,13.30
2018-10-19T17:08:33.026Z,13.20
2018-10-19T17:11:03.964Z,13.10
2018-10-19T17:13:33.992Z,13.10
2018-10-19T17:16:04.679Z,13.10
2018-10-19T17:18:33.929Z,13.00
2018-10-19T17:21:03.394Z,12.80
2018-10-19T17:23:33.455Z,12.80
2018-10-19T17:26:05.224Z,12.70
2018-10-19T17:28:34.496Z,12.70
2018-10-19T17:31:03.972Z,12.70
2018-10-19T17:33:33.367Z,12.60
2018-10-19T17:36:04.945Z,12.40
2018-10-19T17:38:35.042Z,12.30
2018-10-19T17:41:04.637Z,12.20
2018-10-19T17:43:34.175Z,12.20
2018-10-19T17:46:03.824Z,12.10
2018-10-19T17:48:33.940Z,11.90
2018-10-19T17:51:04.109Z,11.90
2018-10-19T17:53:33.563Z,11.70
2018-10-19T17:56:04.737Z,11.50
2018-10-19T17:58:35.995Z,11.50
2018-10-19T18:01:05.785Z,11.60
2018-10-19T18:03:35.059Z,11.60
2018-10-19T18:06:05.067Z,11.70
2018-10-19T18:08:34.450Z,11.70
2018-10-19T18:11:05.143Z,11.70
2018-10-19T18:13:34.585Z,11.60
2018-10-19T18:16:08.328Z,11.60
2018-10-19T18:18:38.436Z,11.30
2018-10-19T18:21:08.358Z,11.30
2018-10-19T18:23:40.911Z,11.30
2018-10-19T18:26:10.298Z,11.30
2018-10-19T18:28:39.581Z,11.30
2018-10-19T18:31:12.783Z,11.40
2018-10-19T18:33:43.152Z,11.30
2018-10-19T18:36:15.224Z,11.10
2018-10-19T18:38:44.497Z,11.10
2018-10-19T18:41:14.918Z,10.90
2018-10-19T18:43:44.198Z,10.90
2018-10-19T18:46:18.732Z,10.80
2018-10-19T18:48:48.187Z,10.80
2018-10-19T18:51:18.120Z,10.70
2018-10-19T18:53:47.889Z,10.80
2018-10-19T18:56:17.501Z,10.80
2018-10-19T18:58:47.208Z,10.80
2018-10-19T19:01:17.516Z,10.70
2018-10-19T19:03:46.839Z,10.60
2018-10-19T19:06:18.677Z,10.50
2018-10-19T19:08:49.791Z,10.30
2018-10-19T19:11:19.428Z,10.30
2018-10-19T19:13:50.525Z,10.20
2018-10-19T19:16:26.365Z,10.20
2018-10-19T19:18:55.682Z,10.20
2018-10-19T19:21:25.216Z,10.20
2018-10-19T19:24:00.272Z,10.20
2018-10-19T19:26:29.782Z,10.30
2018-10-19T19:28:59.566Z,10.30
2018-10-19T19:31:28.916Z,10.20
2018-10-19T19:34:03.617Z,10.10
2018-10-19T19:36:33.990Z,10.00
2018-10-19T19:39:05.545Z,10.00
2018-10-19T19:41:42.447Z,10.00
2018-10-19T19:44:11.905Z,9.90
2018-10-19T19:46:41.169Z,9.80
2018-10-19T19:49:15.795Z,9.70
2018-10-19T19:51:45.036Z,9.70
2018-10-19T19:54:14.306Z,9.70
2018-10-19T19:56:43.644Z,9.70
2018-10-19T19:59:14.254Z,9.70
2018-10-19T20:01:44.205Z,9.70
2018-10-19T20:04:13.431Z,9.60
2018-10-19T20:06:43.736Z,9.50
2018-10-19T20:09:13.009Z,9.40
2018-10-19T20:11:42.612Z,9.30
2018-10-19T20:14:12.177Z,9.50
2018-10-19T20:16:42.111Z,9.50
2018-10-19T20:19:11.568Z,9.50
2018-10-19T20:21:41.247Z,9.40
2018-10-19T20:24:11.491Z,9.40
2018-10-19T20:26:42.855Z,9.40
2018-10-19T20:29:13.212Z,9.40
2018-10-19T20:31:43.559Z,9.40
2018-10-19T20:34:12.842Z,9.20
2018-10-19T20:36:44.131Z,9.10
2018-10-19T20:39:14.120Z,9.20
2018-10-19T20:41:43.339Z,9.10
2018-10-19T20:44:12.561Z,9.10
2018-10-19T20:46:41.940Z,9.10
2018-10-19T20:49:13.170Z,9.10
2018-10-19T20:51:42.860Z,9.00
2018-10-19T20:54:13.147Z,9.00
2018-10-19T20:56:43.505Z,9.00
2018-10-19T20:59:13.121Z,9.10
2018-10-19T21:01:42.276Z,9.20
2018-10-19T21:04:13.249Z,9.20
2018-10-19T21:06:44.472Z,9.10
2018-10-19T21:09:13.714Z,9.00
2018-10-19T21:11:42.975Z,8.80
2018-10-19T21:14:13.020Z,8.90
2018-10-19T21:16:42.272Z,8.90
2018-10-19T21:19:12.517Z,8.80
2018-10-19T21:21:41.725Z,8.80
2018-10-19T21:24:12.194Z,8.70
2018-10-19T21:26:41.661Z,8.70
2018-10-19T21:29:11.781Z,8.70
2018-10-19T21:31:40.958Z,8.60
2018-10-19T21:34:10.199Z,8.60
2018-10-19T21:36:40.588Z,8.60
2018-10-19T21:39:11.208Z,8.60
2018-10-19T21:41:40.667Z,8.60
2018-10-19T21:44:09.959Z,8.60
2018-10-19T21:46:41.213Z,8.60
2018-10-19T21:49:10.410Z,8.60
2018-10-19T21:51:39.775Z,8.50
2018-10-19T21:54:08.911Z,8.40
2018-10-19T21:56:38.344Z,8.40
2018-10-19T21:59:07.597Z,8.30
2018-10-19T22:01:36.773Z,8.30
2018-10-19T22:04:06.220Z,8.20
2018-10-19T22:06:35.570Z,8.20
2018-10-19T22:09:08.004Z,8.20
2018-10-19T22:11:37.593Z,8.20
2018-10-19T22:14:07.060Z,8.20
2018-10-19T22:16:36.372Z,8.20
2018-10-19T22:19:06.479Z,8.20
2018-10-19T22:21:36.527Z,8.10
2018-10-19T22:24:06.357Z,8.10
2018-10-19T22:26:38.002Z,8.10
2018-10-19T22:29:07.707Z,8.10
2018-10-19T22:31:36.876Z,8.10
2018-10-19T22:34:06.127Z,8.00
2018-10-19T22:36:35.481Z,8.00
2018-10-19T22:39:06.669Z,8.00
2018-10-19T22:41:40.143Z,8.00
2018-10-19T22:44:09.298Z,8.00
2018-10-19T22:46:39.643Z,8.00
2018-10-19T22:49:08.932Z,8.00
2018-10-19T22:51:38.036Z,8.00
2018-10-19T22:54:07.230Z,7.90
2018-10-19T22:56:36.720Z,7.90
2018-10-19T22:59:06.109Z,8.00
2018-10-19T23:01:35.471Z,7.90
2018-10-19T23:04:06.008Z,7.90
2018-10-19T23:06:35.282Z,7.80
2018-10-19T23:09:06.290Z,7.80
2018-10-19T23:11:35.562Z,7.70
2018-10-19T23:14:04.887Z,7.60
2018-10-19T23:16:36.199Z,7.60
2018-10-19T23:19:06.049Z,7.50
2018-10-19T23:21:35.360Z,7.60
2018-10-19T23:24:04.955Z,7.50
2018-10-19T23:26:34.275Z,7.50
2018-10-19T23:29:03.753Z,7.50
2018-10-19T23:31:33.106Z,7.50
2018-10-19T23:34:02.251Z,7.50
2018-10-19T23:36:32.921Z,7.50
2018-10-19T23:39:02.471Z,7.50
2018-10-19T23:41:31.932Z,7.50
2018-10-19T23:44:01.127Z,7.50
2018-10-19T23:46:31.745Z,7.50
2018-10-19T23:49:01.004Z,7.60
2018-10-19T23:51:30.191Z,7.50
2018-10-19T23:54:01.475Z,7.60
2018-10-19T23:56:32.841Z,7.60
2018-10-19T23:59:02.320Z,7.50
